sensor_id;sensor_type;location;lat;lon;timestamp;P1;durP1;ratioP1;P2;durP2;ratioP2
44068;SDS011;29738;51.234;5.484;2022-08-20T00:00:55;19.65;;;9.88;;
44068;SDS011;29738;51.234;5.484;2022-08-20T00:03:23;21.05;;;9.88;;
44068;SDS011;29738;51.234;5.484;2022-08-20T00:05:56;24.35;;;10.63;;
44068;SDS011;29738;51.234;5.484;2022-08-20T00:08:28;20.73;;;9.98;;
44068;SDS011;29738;51.234;5.484;2022-08-20T00:10:56;25.75;;;11.45;;
44068;SDS011;29738;51.234;5.484;2022-08-20T00:13:26;18.90;;;10.23;;
44068;SDS011;29738;51.234;5.484;2022-08-20T00:15:59;21.83;;;10.75;;
44068;SDS011;29738;51.234;5.484;2022-08-20T00:18:26;18.73;;;9.30;;
44068;SDS011;29738;51.234;5.484;2022-08-20T00:20:54;22.20;;;10.57;;
44068;SDS011;29738;51.234;5.484;2022-08-20T00:23:22;21.88;;;9.57;;
44068;SDS011;29738;51.234;5.484;2022-08-20T00:25:49;22.33;;;11.48;;
44068;SDS011;29738;51.234;5.484;2022-08-20T00:28:16;21.08;;;10.50;;
44068;SDS011;29738;51.234;5.484;2022-08-20T00:30:43;26.15;;;11.10;;
44068;SDS011;29738;51.234;5.484;2022-08-20T00:33:14;24.73;;;11.32;;
44068;SDS011;29738;51.234;5.484;2022-08-20T00:35:44;21.75;;;11.27;;
44068;SDS011;29738;51.234;5.484;2022-08-20T00:38:12;23.23;;;10.63;;
44068;SDS011;29738;51.234;5.484;2022-08-20T00:40:40;23.25;;;11.98;;
44068;SDS011;29738;51.234;5.484;2022-08-20T00:43:25;19.63;;;10.38;;
44068;SDS011;29738;51.234;5.484;2022-08-20T00:45:57;24.63;;;11.98;;
44068;SDS011;29738;51.234;5.484;2022-08-20T00:48:27;27.30;;;12.00;;
44068;SDS011;29738;51.234;5.484;2022-08-20T00:50:58;26.65;;;11.82;;
44068;SDS011;29738;51.234;5.484;2022-08-20T00:53:35;22.95;;;11.82;;
44068;SDS011;29738;51.234;5.484;2022-08-20T00:56:03;25.10;;;11.82;;
44068;SDS011;29738;51.234;5.484;2022-08-20T00:58:31;26.13;;;11.00;;
44068;SDS011;29738;51.234;5.484;2022-08-20T01:00:57;23.73;;;10.95;;
44068;SDS011;29738;51.234;5.484;2022-08-20T01:03:24;25.88;;;12.25;;
44068;SDS011;29738;51.234;5.484;2022-08-20T01:05:50;23.27;;;11.52;;
44068;SDS011;29738;51.234;5.484;2022-08-20T01:08:17;27.05;;;11.48;;
44068;SDS011;29738;51.234;5.484;2022-08-20T01:10:45;27.10;;;12.70;;
44068;SDS011;29738;51.234;5.484;2022-08-20T01:13:16;28.85;;;12.48;;
44068;SDS011;29738;51.234;5.484;2022-08-20T01:15:45;26.88;;;12.13;;
44068;SDS011;29738;51.234;5.484;2022-08-20T01:18:15;25.63;;;12.65;;
44068;SDS011;29738;51.234;5.484;2022-08-20T01:21:05;29.85;;;13.70;;
44068;SDS011;29738;51.234;5.484;2022-08-20T01:23:56;30.98;;;13.70;;
44068;SDS011;29738;51.234;5.484;2022-08-20T01:26:41;25.95;;;12.43;;
44068;SDS011;29738;51.234;5.484;2022-08-20T01:29:18;30.35;;;14.98;;
44068;SDS011;29738;51.234;5.484;2022-08-20T01:31:47;37.00;;;15.10;;
44068;SDS011;29738;51.234;5.484;2022-08-20T01:34:14;32.58;;;15.20;;
44068;SDS011;29738;51.234;5.484;2022-08-20T01:36:48;36.22;;;15.40;;
44068;SDS011;29738;51.234;5.484;2022-08-20T01:39:18;34.35;;;15.52;;
44068;SDS011;29738;51.234;5.484;2022-08-20T01:44:42;34.47;;;15.60;;
44068;SDS011;29738;51.234;5.484;2022-08-20T01:49:34;39.38;;;17.45;;
44068;SDS011;29738;51.234;5.484;2022-08-20T01:52:08;35.92;;;17.25;;
44068;SDS011;29738;51.234;5.484;2022-08-20T01:54:36;36.85;;;17.50;;
44068;SDS011;29738;51.234;5.484;2022-08-20T01:57:10;34.45;;;16.48;;
44068;SDS011;29738;51.234;5.484;2022-08-20T01:59:38;38.70;;;16.30;;
44068;SDS011;29738;51.234;5.484;2022-08-20T02:02:05;31.00;;;16.38;;
44068;SDS011;29738;51.234;5.484;2022-08-20T02:04:31;31.65;;;15.43;;
44068;SDS011;29738;51.234;5.484;2022-08-20T02:06:58;33.30;;;15.75;;
44068;SDS011;29738;51.234;5.484;2022-08-20T02:09:26;35.38;;;17.02;;
44068;SDS011;29738;51.234;5.484;2022-08-20T02:11:54;38.13;;;15.40;;
44068;SDS011;29738;51.234;5.484;2022-08-20T02:14:21;34.00;;;16.40;;
44068;SDS011;29738;51.234;5.484;2022-08-20T02:16:47;38.65;;;18.67;;
44068;SDS011;29738;51.234;5.484;2022-08-20T02:19:25;34.22;;;16.30;;
44068;SDS011;29738;51.234;5.484;2022-08-20T02:21:59;38.45;;;15.23;;
44068;SDS011;29738;51.234;5.484;2022-08-20T02:24:30;37.30;;;16.15;;
44068;SDS011;29738;51.234;5.484;2022-08-20T02:26:56;32.08;;;14.75;;
44068;SDS011;29738;51.234;5.484;2022-08-20T02:29:22;35.42;;;15.18;;
44068;SDS011;29738;51.234;5.484;2022-08-20T02:31:47;29.02;;;13.75;;
44068;SDS011;29738;51.234;5.484;2022-08-20T02:34:13;34.58;;;15.48;;
44068;SDS011;29738;51.234;5.484;2022-08-20T02:36:40;31.58;;;14.02;;
44068;SDS011;29738;51.234;5.484;2022-08-20T02:39:09;37.15;;;15.13;;
44068;SDS011;29738;51.234;5.484;2022-08-20T02:41:37;32.83;;;15.38;;
44068;SDS011;29738;51.234;5.484;2022-08-20T02:44:03;34.92;;;15.15;;
44068;SDS011;29738;51.234;5.484;2022-08-20T02:46:31;30.70;;;15.38;;
44068;SDS011;29738;51.234;5.484;2022-08-20T02:48:57;30.55;;;15.45;;
44068;SDS011;29738;51.234;5.484;2022-08-20T02:51:24;29.45;;;14.20;;
44068;SDS011;29738;51.234;5.484;2022-08-20T02:53:50;29.48;;;13.52;;
44068;SDS011;29738;51.234;5.484;2022-08-20T02:56:15;30.15;;;13.20;;
44068;SDS011;29738;51.234;5.484;2022-08-20T02:58:41;26.55;;;12.85;;
44068;SDS011;29738;51.234;5.484;2022-08-20T03:01:09;27.98;;;13.48;;
44068;SDS011;29738;51.234;5.484;2022-08-20T03:03:39;28.13;;;13.00;;
44068;SDS011;29738;51.234;5.484;2022-08-20T03:06:06;25.88;;;11.68;;
44068;SDS011;29738;51.234;5.484;2022-08-20T03:08:34;27.90;;;13.30;;
44068;SDS011;29738;51.234;5.484;2022-08-20T03:11:00;26.98;;;12.32;;
44068;SDS011;29738;51.234;5.484;2022-08-20T03:13:26;30.10;;;14.43;;
44068;SDS011;29738;51.234;5.484;2022-08-20T03:15:55;27.08;;;12.65;;
44068;SDS011;29738;51.234;5.484;2022-08-20T03:18:24;26.02;;;11.10;;
44068;SDS011;29738;51.234;5.484;2022-08-20T03:21:00;24.58;;;12.48;;
44068;SDS011;29738;51.234;5.484;2022-08-20T03:23:27;28.77;;;13.65;;
44068;SDS011;29738;51.234;5.484;2022-08-20T03:25:53;26.83;;;12.43;;
44068;SDS011;29738;51.234;5.484;2022-08-20T03:28:19;29.40;;;14.60;;
44068;SDS011;29738;51.234;5.484;2022-08-20T03:30:45;33.70;;;15.10;;
44068;SDS011;29738;51.234;5.484;2022-08-20T03:33:11;33.80;;;14.85;;
44068;SDS011;29738;51.234;5.484;2022-08-20T03:35:37;33.92;;;15.80;;
44068;SDS011;29738;51.234;5.484;2022-08-20T03:38:10;32.88;;;14.38;;
44068;SDS011;29738;51.234;5.484;2022-08-20T03:40:37;35.97;;;16.20;;
44068;SDS011;29738;51.234;5.484;2022-08-20T03:43:04;56.60;;;17.38;;
44068;SDS011;29738;51.234;5.484;2022-08-20T03:45:33;36.38;;;16.05;;
44068;SDS011;29738;51.234;5.484;2022-08-20T03:48:00;34.35;;;15.20;;
44068;SDS011;29738;51.234;5.484;2022-08-20T03:50:27;35.20;;;15.63;;
44068;SDS011;29738;51.234;5.484;2022-08-20T03:52:55;33.53;;;15.93;;
44068;SDS011;29738;51.234;5.484;2022-08-20T03:55:22;35.47;;;15.73;;
44068;SDS011;29738;51.234;5.484;2022-08-20T03:57:51;40.30;;;15.27;;
44068;SDS011;29738;51.234;5.484;2022-08-20T04:00:21;35.47;;;15.02;;
44068;SDS011;29738;51.234;5.484;2022-08-20T04:02:51;29.98;;;11.52;;
44068;SDS011;29738;51.234;5.484;2022-08-20T04:05:17;27.20;;;12.65;;
44068;SDS011;29738;51.234;5.484;2022-08-20T04:07:44;27.02;;;12.73;;
44068;SDS011;29738;51.234;5.484;2022-08-20T04:10:11;26.83;;;12.73;;
44068;SDS011;29738;51.234;5.484;2022-08-20T04:12:37;25.17;;;10.52;;
44068;SDS011;29738;51.234;5.484;2022-08-20T04:15:06;24.02;;;10.25;;
44068;SDS011;29738;51.234;5.484;2022-08-20T04:17:33;26.02;;;10.32;;
44068;SDS011;29738;51.234;5.484;2022-08-20T04:20:02;23.30;;;9.48;;
44068;SDS011;29738;51.234;5.484;2022-08-20T04:22:29;26.33;;;10.10;;
44068;SDS011;29738;51.234;5.484;2022-08-20T04:24:55;21.20;;;9.55;;
44068;SDS011;29738;51.234;5.484;2022-08-20T04:27:21;19.13;;;8.68;;
44068;SDS011;29738;51.234;5.484;2022-08-20T04:29:47;23.70;;;8.95;;
44068;SDS011;29738;51.234;5.484;2022-08-20T04:32:12;17.00;;;8.65;;
44068;SDS011;29738;51.234;5.484;2022-08-20T04:34:38;24.52;;;9.93;;
44068;SDS011;29738;51.234;5.484;2022-08-20T04:37:05;19.45;;;8.77;;
44068;SDS011;29738;51.234;5.484;2022-08-20T04:39:31;20.52;;;9.20;;
44068;SDS011;29738;51.234;5.484;2022-08-20T04:41:57;21.40;;;8.90;;
44068;SDS011;29738;51.234;5.484;2022-08-20T04:44:23;27.80;;;10.77;;
44068;SDS011;29738;51.234;5.484;2022-08-20T04:46:49;24.08;;;9.57;;
44068;SDS011;29738;51.234;5.484;2022-08-20T04:49:15;23.13;;;9.73;;
44068;SDS011;29738;51.234;5.484;2022-08-20T04:51:40;23.02;;;9.77;;
44068;SDS011;29738;51.234;5.484;2022-08-20T04:54:06;23.27;;;9.85;;
44068;SDS011;29738;51.234;5.484;2022-08-20T04:56:33;22.42;;;9.35;;
44068;SDS011;29738;51.234;5.484;2022-08-20T04:59:03;24.85;;;9.07;;
44068;SDS011;29738;51.234;5.484;2022-08-20T05:01:31;24.23;;;9.48;;
44068;SDS011;29738;51.234;5.484;2022-08-20T05:03:57;23.45;;;10.00;;
44068;SDS011;29738;51.234;5.484;2022-08-20T05:06:25;28.23;;;10.10;;
44068;SDS011;29738;51.234;5.484;2022-08-20T05:08:54;21.50;;;9.82;;
44068;SDS011;29738;51.234;5.484;2022-08-20T05:11:22;22.92;;;8.77;;
44068;SDS011;29738;51.234;5.484;2022-08-20T05:13:48;22.85;;;9.45;;
44068;SDS011;29738;51.234;5.484;2022-08-20T05:16:17;21.73;;;10.02;;
44068;SDS011;29738;51.234;5.484;2022-08-20T05:18:44;21.58;;;8.70;;
44068;SDS011;29738;51.234;5.484;2022-08-20T05:21:11;23.33;;;9.52;;
44068;SDS011;29738;51.234;5.484;2022-08-20T05:23:38;24.08;;;12.00;;
44068;SDS011;29738;51.234;5.484;2022-08-20T05:26:07;25.98;;;10.48;;
44068;SDS011;29738;51.234;5.484;2022-08-20T05:28:35;28.33;;;11.35;;
44068;SDS011;29738;51.234;5.484;2022-08-20T05:31:02;30.17;;;11.23;;
44068;SDS011;29738;51.234;5.484;2022-08-20T05:33:31;26.02;;;10.52;;
44068;SDS011;29738;51.234;5.484;2022-08-20T05:35:57;31.50;;;11.45;;
44068;SDS011;29738;51.234;5.484;2022-08-20T05:38:24;35.38;;;13.00;;
44068;SDS011;29738;51.234;5.484;2022-08-20T05:40:52;34.38;;;11.18;;
44068;SDS011;29738;51.234;5.484;2022-08-20T05:43:18;33.92;;;12.02;;
44068;SDS011;29738;51.234;5.484;2022-08-20T05:45:45;31.13;;;11.18;;
44068;SDS011;29738;51.234;5.484;2022-08-20T05:48:16;36.25;;;12.85;;
44068;SDS011;29738;51.234;5.484;2022-08-20T05:50:43;28.67;;;11.40;;
44068;SDS011;29738;51.234;5.484;2022-08-20T05:53:11;44.78;;;15.63;;
44068;SDS011;29738;51.234;5.484;2022-08-20T05:55:37;29.30;;;12.57;;
44068;SDS011;29738;51.234;5.484;2022-08-20T05:58:05;43.95;;;13.80;;
44068;SDS011;29738;51.234;5.484;2022-08-20T06:00:33;36.53;;;12.63;;
44068;SDS011;29738;51.234;5.484;2022-08-20T06:02:59;36.95;;;14.10;;
44068;SDS011;29738;51.234;5.484;2022-08-20T06:05:44;35.63;;;12.70;;
44068;SDS011;29738;51.234;5.484;2022-08-20T06:08:10;33.58;;;13.20;;
44068;SDS011;29738;51.234;5.484;2022-08-20T06:10:37;30.70;;;13.15;;
44068;SDS011;29738;51.234;5.484;2022-08-20T06:13:04;39.88;;;14.55;;
44068;SDS011;29738;51.234;5.484;2022-08-20T06:15:31;38.17;;;16.08;;
44068;SDS011;29738;51.234;5.484;2022-08-20T06:17:58;32.38;;;14.85;;
44068;SDS011;29738;51.234;5.484;2022-08-20T06:20:23;41.10;;;15.45;;
44068;SDS011;29738;51.234;5.484;2022-08-20T06:22:50;40.30;;;16.50;;
44068;SDS011;29738;51.234;5.484;2022-08-20T06:25:17;33.88;;;14.32;;
44068;SDS011;29738;51.234;5.484;2022-08-20T06:27:43;40.95;;;15.43;;
44068;SDS011;29738;51.234;5.484;2022-08-20T06:30:10;40.28;;;16.13;;
44068;SDS011;29738;51.234;5.484;2022-08-20T06:32:37;48.63;;;17.65;;
44068;SDS011;29738;51.234;5.484;2022-08-20T06:35:05;42.20;;;15.18;;
44068;SDS011;29738;51.234;5.484;2022-08-20T06:37:33;43.25;;;17.13;;
44068;SDS011;29738;51.234;5.484;2022-08-20T06:40:03;43.40;;;17.17;;
44068;SDS011;29738;51.234;5.484;2022-08-20T06:42:34;51.75;;;17.42;;
44068;SDS011;29738;51.234;5.484;2022-08-20T06:45:00;55.45;;;19.33;;
44068;SDS011;29738;51.234;5.484;2022-08-20T06:47:28;46.80;;;16.67;;
44068;SDS011;29738;51.234;5.484;2022-08-20T06:49:55;46.13;;;17.30;;
44068;SDS011;29738;51.234;5.484;2022-08-20T06:52:21;44.40;;;17.88;;
44068;SDS011;29738;51.234;5.484;2022-08-20T06:54:47;47.38;;;18.90;;
44068;SDS011;29738;51.234;5.484;2022-08-20T06:57:13;46.78;;;19.10;;
44068;SDS011;29738;51.234;5.484;2022-08-20T06:59:39;52.30;;;19.48;;
44068;SDS011;29738;51.234;5.484;2022-08-20T07:02:05;45.92;;;18.77;;
44068;SDS011;29738;51.234;5.484;2022-08-20T07:04:32;54.30;;;19.13;;
44068;SDS011;29738;51.234;5.484;2022-08-20T07:06:58;54.05;;;19.38;;
44068;SDS011;29738;51.234;5.484;2022-08-20T07:09:24;48.40;;;17.02;;
44068;SDS011;29738;51.234;5.484;2022-08-20T07:11:51;52.38;;;19.08;;
44068;SDS011;29738;51.234;5.484;2022-08-20T07:14:17;37.28;;;15.35;;
44068;SDS011;29738;51.234;5.484;2022-08-20T07:16:44;47.60;;;19.55;;
44068;SDS011;29738;51.234;5.484;2022-08-20T07:19:14;52.47;;;17.73;;
44068;SDS011;29738;51.234;5.484;2022-08-20T07:21:41;53.80;;;17.13;;
44068;SDS011;29738;51.234;5.484;2022-08-20T07:24:07;47.33;;;18.40;;
44068;SDS011;29738;51.234;5.484;2022-08-20T07:26:34;50.85;;;18.95;;
44068;SDS011;29738;51.234;5.484;2022-08-20T07:28:59;55.45;;;19.55;;
44068;SDS011;29738;51.234;5.484;2022-08-20T07:31:25;54.10;;;19.98;;
44068;SDS011;29738;51.234;5.484;2022-08-20T07:34:09;52.47;;;17.98;;
44068;SDS011;29738;51.234;5.484;2022-08-20T07:36:35;52.15;;;19.58;;
44068;SDS011;29738;51.234;5.484;2022-08-20T07:39:02;53.55;;;18.52;;
44068;SDS011;29738;51.234;5.484;2022-08-20T07:41:28;49.33;;;18.55;;
44068;SDS011;29738;51.234;5.484;2022-08-20T07:43:53;54.75;;;18.48;;
44068;SDS011;29738;51.234;5.484;2022-08-20T07:46:20;58.90;;;21.95;;
44068;SDS011;29738;51.234;5.484;2022-08-20T07:48:46;63.70;;;22.30;;
44068;SDS011;29738;51.234;5.484;2022-08-20T07:51:14;57.28;;;21.13;;
44068;SDS011;29738;51.234;5.484;2022-08-20T07:53:42;49.20;;;20.08;;
44068;SDS011;29738;51.234;5.484;2022-08-20T07:56:11;49.60;;;19.92;;
44068;SDS011;29738;51.234;5.484;2022-08-20T07:58:43;51.03;;;18.70;;
44068;SDS011;29738;51.234;5.484;2022-08-20T08:01:14;51.05;;;18.70;;
44068;SDS011;29738;51.234;5.484;2022-08-20T08:03:41;52.88;;;19.42;;
44068;SDS011;29738;51.234;5.484;2022-08-20T08:06:07;47.63;;;19.80;;
44068;SDS011;29738;51.234;5.484;2022-08-20T08:08:33;49.33;;;19.80;;
44068;SDS011;29738;51.234;5.484;2022-08-20T08:11:02;48.67;;;20.63;;
44068;SDS011;29738;51.234;5.484;2022-08-20T08:13:29;56.22;;;21.70;;
44068;SDS011;29738;51.234;5.484;2022-08-20T08:15:59;59.38;;;20.83;;
44068;SDS011;29738;51.234;5.484;2022-08-20T08:18:28;56.58;;;21.40;;
44068;SDS011;29738;51.234;5.484;2022-08-20T08:20:58;53.58;;;19.60;;
44068;SDS011;29738;51.234;5.484;2022-08-20T08:23:24;57.15;;;19.98;;
44068;SDS011;29738;51.234;5.484;2022-08-20T08:25:50;46.80;;;18.30;;
44068;SDS011;29738;51.234;5.484;2022-08-20T08:28:17;48.10;;;18.38;;
44068;SDS011;29738;51.234;5.484;2022-08-20T08:30:45;55.63;;;21.95;;
44068;SDS011;29738;51.234;5.484;2022-08-20T08:33:23;59.65;;;18.80;;
44068;SDS011;29738;51.234;5.484;2022-08-20T08:35:55;47.95;;;18.08;;
44068;SDS011;29738;51.234;5.484;2022-08-20T08:38:23;45.13;;;17.10;;
44068;SDS011;29738;51.234;5.484;2022-08-20T08:40:49;37.40;;;14.98;;
44068;SDS011;29738;51.234;5.484;2022-08-20T08:43:25;44.45;;;16.67;;
44068;SDS011;29738;51.234;5.484;2022-08-20T08:48:28;38.45;;;14.75;;
44068;SDS011;29738;51.234;5.484;2022-08-20T08:50:59;36.22;;;14.55;;
44068;SDS011;29738;51.234;5.484;2022-08-20T08:53:30;45.13;;;16.63;;
44068;SDS011;29738;51.234;5.484;2022-08-20T08:56:00;34.60;;;13.73;;
44068;SDS011;29738;51.234;5.484;2022-08-20T08:58:26;34.58;;;13.27;;
44068;SDS011;29738;51.234;5.484;2022-08-20T09:00:52;34.10;;;12.65;;
44068;SDS011;29738;51.234;5.484;2022-08-20T09:03:26;32.20;;;12.77;;
44068;SDS011;29738;51.234;5.484;2022-08-20T09:05:59;33.78;;;12.93;;
44068;SDS011;29738;51.234;5.484;2022-08-20T09:08:29;35.20;;;12.75;;
44068;SDS011;29738;51.234;5.484;2022-08-20T09:11:03;34.13;;;13.27;;
44068;SDS011;29738;51.234;5.484;2022-08-20T09:13:30;37.83;;;14.57;;
44068;SDS011;29738;51.234;5.484;2022-08-20T09:15:57;35.47;;;12.77;;
44068;SDS011;29738;51.234;5.484;2022-08-20T09:18:23;30.80;;;12.65;;
44068;SDS011;29738;51.234;5.484;2022-08-20T09:20:48;30.13;;;12.55;;
44068;SDS011;29738;51.234;5.484;2022-08-20T09:23:14;30.95;;;12.77;;
44068;SDS011;29738;51.234;5.484;2022-08-20T09:25:40;37.47;;;12.85;;
44068;SDS011;29738;51.234;5.484;2022-08-20T09:28:07;34.15;;;14.38;;
44068;SDS011;29738;51.234;5.484;2022-08-20T09:30:33;35.08;;;14.05;;
44068;SDS011;29738;51.234;5.484;2022-08-20T09:32:59;44.83;;;15.70;;
44068;SDS011;29738;51.234;5.484;2022-08-20T09:35:25;33.50;;;13.38;;
44068;SDS011;29738;51.234;5.484;2022-08-20T09:37:52;33.13;;;13.80;;
44068;SDS011;29738;51.234;5.484;2022-08-20T09:40:18;36.92;;;13.18;;
44068;SDS011;29738;51.234;5.484;2022-08-20T09:42:44;34.17;;;14.13;;
44068;SDS011;29738;51.234;5.484;2022-08-20T09:45:10;39.28;;;15.52;;
44068;SDS011;29738;51.234;5.484;2022-08-20T09:47:40;38.95;;;15.20;;
44068;SDS011;29738;51.234;5.484;2022-08-20T09:50:06;35.47;;;15.55;;
44068;SDS011;29738;51.234;5.484;2022-08-20T09:52:34;40.53;;;15.82;;
44068;SDS011;29738;51.234;5.484;2022-08-20T09:57:55;34.05;;;14.55;;
44068;SDS011;29738;51.234;5.484;2022-08-20T10:00:21;33.40;;;14.13;;
44068;SDS011;29738;51.234;5.484;2022-08-20T10:02:47;36.97;;;14.88;;
44068;SDS011;29738;51.234;5.484;2022-08-20T10:05:13;37.65;;;15.70;;
44068;SDS011;29738;51.234;5.484;2022-08-20T10:07:39;37.88;;;15.98;;
44068;SDS011;29738;51.234;5.484;2022-08-20T10:10:06;39.22;;;16.85;;
44068;SDS011;29738;51.234;5.484;2022-08-20T10:12:34;41.90;;;17.33;;
44068;SDS011;29738;51.234;5.484;2022-08-20T10:15:00;40.35;;;18.58;;
44068;SDS011;29738;51.234;5.484;2022-08-20T10:17:25;40.08;;;18.05;;
44068;SDS011;29738;51.234;5.484;2022-08-20T10:19:51;37.67;;;18.55;;
44068;SDS011;29738;51.234;5.484;2022-08-20T10:22:17;32.95;;;13.90;;
44068;SDS011;29738;51.234;5.484;2022-08-20T10:24:43;32.95;;;14.98;;
44068;SDS011;29738;51.234;5.484;2022-08-20T10:27:08;35.20;;;14.27;;
44068;SDS011;29738;51.234;5.484;2022-08-20T10:29:34;34.17;;;15.45;;
44068;SDS011;29738;51.234;5.484;2022-08-20T10:32:11;35.33;;;15.63;;
44068;SDS011;29738;51.234;5.484;2022-08-20T10:34:39;39.42;;;15.40;;
44068;SDS011;29738;51.234;5.484;2022-08-20T10:37:06;39.85;;;17.08;;
44068;SDS011;29738;51.234;5.484;2022-08-20T10:39:33;35.28;;;16.15;;
44068;SDS011;29738;51.234;5.484;2022-08-20T10:41:59;39.20;;;17.55;;
44068;SDS011;29738;51.234;5.484;2022-08-20T10:44:25;38.45;;;15.38;;
44068;SDS011;29738;51.234;5.484;2022-08-20T10:46:51;42.05;;;16.70;;
44068;SDS011;29738;51.234;5.484;2022-08-20T10:49:16;36.72;;;15.27;;
44068;SDS011;29738;51.234;5.484;2022-08-20T10:51:42;31.35;;;15.00;;
44068;SDS011;29738;51.234;5.484;2022-08-20T10:54:08;38.20;;;15.88;;
44068;SDS011;29738;51.234;5.484;2022-08-20T10:56:34;34.78;;;15.60;;
44068;SDS011;29738;51.234;5.484;2022-08-20T10:59:00;32.97;;;14.77;;
44068;SDS011;29738;51.234;5.484;2022-08-20T11:01:25;39.33;;;15.38;;
44068;SDS011;29738;51.234;5.484;2022-08-20T11:03:51;35.38;;;15.10;;
44068;SDS011;29738;51.234;5.484;2022-08-20T11:06:17;37.80;;;15.65;;
44068;SDS011;29738;51.234;5.484;2022-08-20T11:08:43;37.35;;;15.68;;
44068;SDS011;29738;51.234;5.484;2022-08-20T11:11:08;32.83;;;15.40;;
44068;SDS011;29738;51.234;5.484;2022-08-20T11:13:35;34.25;;;15.55;;
44068;SDS011;29738;51.234;5.484;2022-08-20T11:16:01;33.10;;;16.00;;
44068;SDS011;29738;51.234;5.484;2022-08-20T11:18:27;33.60;;;15.55;;
44068;SDS011;29738;51.234;5.484;2022-08-20T11:20:54;29.58;;;13.57;;
44068;SDS011;29738;51.234;5.484;2022-08-20T11:23:20;35.10;;;16.33;;
44068;SDS011;29738;51.234;5.484;2022-08-20T11:25:46;31.67;;;14.82;;
44068;SDS011;29738;51.234;5.484;2022-08-20T11:28:13;33.65;;;14.10;;
44068;SDS011;29738;51.234;5.484;2022-08-20T11:30:39;28.70;;;13.43;;
44068;SDS011;29738;51.234;5.484;2022-08-20T11:33:05;34.95;;;13.60;;
44068;SDS011;29738;51.234;5.484;2022-08-20T11:35:33;26.30;;;9.95;;
44068;SDS011;29738;51.234;5.484;2022-08-20T11:38:00;23.88;;;9.30;;
44068;SDS011;29738;51.234;5.484;2022-08-20T11:40:26;21.50;;;8.63;;
44068;SDS011;29738;51.234;5.484;2022-08-20T11:42:53;26.88;;;9.07;;
44068;SDS011;29738;51.234;5.484;2022-08-20T11:45:19;19.42;;;8.13;;
44068;SDS011;29738;51.234;5.484;2022-08-20T11:47:45;23.05;;;7.97;;
44068;SDS011;29738;51.234;5.484;2022-08-20T11:50:12;17.85;;;7.93;;
44068;SDS011;29738;51.234;5.484;2022-08-20T11:52:40;18.90;;;7.35;;
44068;SDS011;29738;51.234;5.484;2022-08-20T11:55:07;22.95;;;8.80;;
44068;SDS011;29738;51.234;5.484;2022-08-20T11:57:35;24.40;;;9.10;;
44068;SDS011;29738;51.234;5.484;2022-08-20T12:00:06;27.23;;;10.07;;
44068;SDS011;29738;51.234;5.484;2022-08-20T12:02:36;25.67;;;10.52;;
44068;SDS011;29738;51.234;5.484;2022-08-20T12:05:02;24.77;;;11.15;;
44068;SDS011;29738;51.234;5.484;2022-08-20T12:07:28;26.15;;;10.25;;
44068;SDS011;29738;51.234;5.484;2022-08-20T12:09:54;27.73;;;9.90;;
44068;SDS011;29738;51.234;5.484;2022-08-20T12:12:20;28.48;;;10.50;;
44068;SDS011;29738;51.234;5.484;2022-08-20T12:14:50;29.63;;;9.93;;
44068;SDS011;29738;51.234;5.484;2022-08-20T12:17:22;25.20;;;10.68;;
44068;SDS011;29738;51.234;5.484;2022-08-20T12:19:51;24.42;;;9.77;;
44068;SDS011;29738;51.234;5.484;2022-08-20T12:22:18;32.13;;;10.20;;
44068;SDS011;29738;51.234;5.484;2022-08-20T12:24:44;28.17;;;10.95;;
44068;SDS011;29738;51.234;5.484;2022-08-20T12:29:42;31.38;;;11.73;;
44068;SDS011;29738;51.234;5.484;2022-08-20T12:32:09;27.80;;;13.57;;
44068;SDS011;29738;51.234;5.484;2022-08-20T12:34:37;23.30;;;10.85;;
44068;SDS011;29738;51.234;5.484;2022-08-20T12:37:06;25.02;;;11.52;;
44068;SDS011;29738;51.234;5.484;2022-08-20T12:39:34;28.65;;;10.52;;
44068;SDS011;29738;51.234;5.484;2022-08-20T12:42:03;24.20;;;10.57;;
44068;SDS011;29738;51.234;5.484;2022-08-20T12:44:29;26.42;;;12.02;;
44068;SDS011;29738;51.234;5.484;2022-08-20T12:49:40;26.00;;;11.68;;
44068;SDS011;29738;51.234;5.484;2022-08-20T12:52:10;21.55;;;11.43;;
44068;SDS011;29738;51.234;5.484;2022-08-20T12:54:37;26.20;;;12.88;;
44068;SDS011;29738;51.234;5.484;2022-08-20T12:57:03;26.77;;;12.57;;
44068;SDS011;29738;51.234;5.484;2022-08-20T12:59:29;33.17;;;14.02;;
44068;SDS011;29738;51.234;5.484;2022-08-20T13:01:55;24.88;;;12.80;;
44068;SDS011;29738;51.234;5.484;2022-08-20T13:04:21;26.48;;;12.40;;
44068;SDS011;29738;51.234;5.484;2022-08-20T13:06:47;23.27;;;13.18;;
44068;SDS011;29738;51.234;5.484;2022-08-20T13:09:13;31.75;;;14.13;;
44068;SDS011;29738;51.234;5.484;2022-08-20T13:11:40;28.25;;;13.48;;
44068;SDS011;29738;51.234;5.484;2022-08-20T13:14:06;27.23;;;14.68;;
44068;SDS011;29738;51.234;5.484;2022-08-20T13:16:32;26.13;;;13.15;;
44068;SDS011;29738;51.234;5.484;2022-08-20T13:18:58;26.67;;;14.48;;
44068;SDS011;29738;51.234;5.484;2022-08-20T13:21:24;23.02;;;14.80;;
44068;SDS011;29738;51.234;5.484;2022-08-20T13:23:50;27.50;;;15.45;;
44068;SDS011;29738;51.234;5.484;2022-08-20T13:26:16;25.10;;;14.80;;
44068;SDS011;29738;51.234;5.484;2022-08-20T13:28:42;23.80;;;14.93;;
44068;SDS011;29738;51.234;5.484;2022-08-20T13:31:07;21.70;;;14.75;;
44068;SDS011;29738;51.234;5.484;2022-08-20T13:33:33;23.90;;;14.75;;
44068;SDS011;29738;51.234;5.484;2022-08-20T13:35:59;26.23;;;14.55;;
44068;SDS011;29738;51.234;5.484;2022-08-20T13:38:24;24.50;;;15.10;;
44068;SDS011;29738;51.234;5.484;2022-08-20T13:40:50;21.92;;;14.43;;
44068;SDS011;29738;51.234;5.484;2022-08-20T13:43:16;28.95;;;14.43;;
44068;SDS011;29738;51.234;5.484;2022-08-20T13:45:42;21.70;;;15.80;;
44068;SDS011;29738;51.234;5.484;2022-08-20T13:48:08;22.90;;;13.63;;
44068;SDS011;29738;51.234;5.484;2022-08-20T13:50:34;24.95;;;13.48;;
44068;SDS011;29738;51.234;5.484;2022-08-20T13:53:02;21.95;;;12.45;;
44068;SDS011;29738;51.234;5.484;2022-08-20T13:55:28;19.27;;;11.60;;
44068;SDS011;29738;51.234;5.484;2022-08-20T13:57:55;28.88;;;14.35;;
44068;SDS011;29738;51.234;5.484;2022-08-20T14:00:26;18.58;;;11.60;;
44068;SDS011;29738;51.234;5.484;2022-08-20T14:02:53;20.15;;;11.13;;
44068;SDS011;29738;51.234;5.484;2022-08-20T14:05:19;17.95;;;10.18;;
44068;SDS011;29738;51.234;5.484;2022-08-20T14:07:46;17.00;;;9.38;;
44068;SDS011;29738;51.234;5.484;2022-08-20T14:10:14;18.30;;;9.95;;
44068;SDS011;29738;51.234;5.484;2022-08-20T14:12:43;17.02;;;8.63;;
44068;SDS011;29738;51.234;5.484;2022-08-20T14:15:09;14.13;;;8.20;;
44068;SDS011;29738;51.234;5.484;2022-08-20T14:17:36;17.20;;;8.10;;
44068;SDS011;29738;51.234;5.484;2022-08-20T14:20:08;17.23;;;9.82;;
44068;SDS011;29738;51.234;5.484;2022-08-20T14:22:36;14.68;;;7.65;;
44068;SDS011;29738;51.234;5.484;2022-08-20T14:25:03;13.60;;;7.78;;
44068;SDS011;29738;51.234;5.484;2022-08-20T14:27:30;14.73;;;7.97;;
44068;SDS011;29738;51.234;5.484;2022-08-20T14:29:57;18.55;;;7.30;;
44068;SDS011;29738;51.234;5.484;2022-08-20T14:32:24;13.65;;;7.32;;
44068;SDS011;29738;51.234;5.484;2022-08-20T14:34:50;16.23;;;7.43;;
44068;SDS011;29738;51.234;5.484;2022-08-20T14:37:18;13.98;;;6.95;;
44068;SDS011;29738;51.234;5.484;2022-08-20T14:39:47;13.45;;;6.38;;
44068;SDS011;29738;51.234;5.484;2022-08-20T14:42:15;18.08;;;8.50;;